Anchor, Mississippi
Current Conditions -  °F | °C
As of 4:35 AM on Thursday 18 Dec 2014 (Local Time) from KSTF Reporting Station
Overcast Overcast  
Wind Chill: 38°   Ceiling: 7000
Heat Index: 41°   Visibility: 10mi
Dew Point: 36°   Wind: 5mph
Humidity: 81%   Direction: 50°NE
Pressure: 30.23"   Gusts: NA
Location:  33.7962°N, 89.0553°W
Report Text: KSTF 181035Z AUTO 05004KT 10SM OVC070 05/02 A3023 RMK AO2
Loading
Personal Weather Stations






























Interactive Weather Map New forecast layout! Learn more

10-Day Weather Forecast

Advertisements
Track Severe Weather on mobile